createdAt,value
2023-04-06T00:00:46.890Z,101951.69
2023-04-06T00:03:13.677Z,101926.03
2023-04-06T00:05:40.549Z,101928.06
2023-04-06T00:08:07.235Z,101919.22
2023-04-06T00:10:34.214Z,101946.03
2023-04-06T00:13:01.199Z,101956.06
2023-04-06T00:15:28.038Z,101952.69
2023-04-06T00:17:54.847Z,101942.25
2023-04-06T00:20:21.478Z,101895.06
2023-04-06T00:22:48.230Z,101925.16
2023-04-06T00:25:16.496Z,101884.69
2023-04-06T00:27:43.550Z,101940.41
2023-04-06T00:30:10.836Z,101901.41
2023-04-06T00:32:37.573Z,101909.13
2023-04-06T00:35:04.988Z,101896.28
2023-04-06T00:37:31.906Z,101907.56
2023-04-06T00:39:58.847Z,101934.72
2023-04-06T00:42:29.004Z,101916.59
2023-04-06T00:44:58.639Z,101926.09
2023-04-06T00:47:26.781Z,101918.91
2023-04-06T00:49:54.852Z,101925.09
2023-04-06T00:52:22.050Z,101929.50
2023-04-06T00:54:48.888Z,101926.94
2023-04-06T00:57:16.524Z,101929.53
2023-04-06T00:59:43.529Z,101924.22
2023-04-06T01:02:10.806Z,101917.91
2023-04-06T01:04:37.594Z,101864.91
2023-04-06T01:07:04.244Z,101889.16
2023-04-06T01:09:31.550Z,101911.97
2023-04-06T01:11:59.284Z,101917.50
2023-04-06T01:14:26.852Z,101907.91
2023-04-06T01:16:54.092Z,101883.13
2023-04-06T01:19:22.150Z,101896.16
2023-04-06T01:21:50.612Z,101900.50
2023-04-06T01:24:17.666Z,101904.88
2023-04-06T01:26:44.615Z,101903.97
2023-04-06T01:29:11.454Z,101865.91
2023-04-06T01:31:38.381Z,101843.28
2023-04-06T01:34:05.948Z,101875.59
2023-04-06T01:36:32.783Z,101893.03
2023-04-06T01:38:59.473Z,101857.81
2023-04-06T01:41:26.319Z,101896.16
2023-04-06T01:43:55.730Z,101832.69
2023-04-06T01:46:22.582Z,101893.28
2023-04-06T01:48:50.045Z,101894.34
2023-04-06T01:51:16.706Z,101894.41
2023-04-06T01:53:43.455Z,101894.59
2023-04-06T01:56:10.505Z,101888.09
2023-04-06T01:58:37.175Z,101885.59
2023-04-06T02:01:03.888Z,101855.19
2023-04-06T02:03:31.874Z,101885.44
2023-04-06T02:05:58.659Z,101884.50
2023-04-06T02:08:25.297Z,101880.13
2023-04-06T02:10:51.995Z,101850.56
2023-04-06T02:13:18.764Z,101853.63
2023-04-06T02:15:45.622Z,101879.16
2023-04-06T02:18:12.327Z,101845.16
2023-04-06T02:20:38.942Z,101862.84
2023-04-06T02:23:05.583Z,101870.91
2023-04-06T02:25:32.221Z,101809.84
2023-04-06T02:27:58.825Z,101873.38
2023-04-06T02:30:25.642Z,101823.72
2023-04-06T02:32:52.354Z,101873.44
2023-04-06T02:35:19.362Z,101833.47
2023-04-06T02:37:46.172Z,101860.31
2023-04-06T02:40:12.884Z,101871.75
2023-04-06T02:42:39.575Z,101857.31
2023-04-06T02:45:06.791Z,101824.78
2023-04-06T02:47:34.412Z,101839.69
2023-04-06T02:50:01.485Z,101876.47
2023-04-06T02:52:28.116Z,101871.16
2023-04-06T02:54:54.713Z,101838.94
2023-04-06T02:57:21.532Z,101877.47
2023-04-06T02:59:48.216Z,101881.94
2023-04-06T03:02:14.856Z,101870.28
2023-04-06T03:04:41.695Z,101830.56
2023-04-06T03:07:08.302Z,101835.03
2023-04-06T03:09:35.430Z,101869.78
2023-04-06T03:12:02.899Z,101830.09
2023-04-06T03:14:31.110Z,101863.22
2023-04-06T03:16:57.745Z,101850.78
2023-04-06T03:19:24.452Z,101859.38
2023-04-06T03:21:51.164Z,101836.59
2023-04-06T03:24:17.853Z,101880.53
2023-04-06T03:26:44.516Z,101848.19
2023-04-06T03:29:11.322Z,101866.22
2023-04-06T03:31:38.071Z,101860.91
2023-04-06T03:34:04.684Z,101858.88
2023-04-06T03:36:31.983Z,101837.97
2023-04-06T03:38:58.756Z,101851.94
2023-04-06T03:41:25.405Z,101832.94
2023-04-06T03:43:52.337Z,101859.97
2023-04-06T03:46:19.036Z,101881.13
2023-04-06T03:48:46.896Z,101882.34
2023-04-06T03:51:13.462Z,101884.31
2023-04-06T03:53:40.096Z,101884.19
2023-04-06T03:56:06.933Z,101857.94
2023-04-06T03:58:33.534Z,101831.28
2023-04-06T04:01:00.135Z,101851.34
2023-04-06T04:03:28.857Z,101892.50
2023-04-06T04:05:58.678Z,101896.22
2023-04-06T04:08:26.098Z,101829.09
2023-04-06T04:10:52.780Z,101877.91
2023-04-06T04:13:19.830Z,101706.50
2023-04-06T04:15:48.729Z,101887.53
2023-04-06T04:18:15.619Z,101892.06
2023-04-06T04:20:42.280Z,101896.47
2023-04-06T04:23:08.893Z,101877.38
2023-04-06T04:25:35.807Z,101874.81
2023-04-06T04:28:02.959Z,101901.09
2023-04-06T04:30:29.604Z,101897.72
2023-04-06T04:32:56.429Z,101866.44
2023-04-06T04:35:23.257Z,101899.59
2023-04-06T04:37:49.988Z,101711.03
2023-04-06T04:40:17.824Z,101892.97
2023-04-06T04:42:44.585Z,101861.56
2023-04-06T04:45:11.511Z,101903.22
2023-04-06T04:47:38.124Z,101900.53
2023-04-06T04:50:05.255Z,101903.97
2023-04-06T04:52:31.838Z,101841.63
2023-04-06T04:54:58.485Z,101905.72
2023-04-06T04:57:25.225Z,101845.56
2023-04-06T04:59:52.153Z,101899.50
2023-04-06T05:02:19.070Z,101904.69
2023-04-06T05:04:45.956Z,101898.75
2023-04-06T05:07:12.693Z,101873.06
2023-04-06T05:09:39.320Z,101855.34
2023-04-06T05:12:06.693Z,101894.28
2023-04-06T05:14:33.656Z,101897.34
2023-04-06T05:17:00.701Z,101895.59
2023-04-06T05:19:27.353Z,101885.03
2023-04-06T05:21:54.165Z,101859.31
2023-04-06T05:24:20.780Z,101894.84
2023-04-06T05:26:47.644Z,101839.72
2023-04-06T05:29:14.499Z,101891.13
2023-04-06T05:31:41.344Z,101867.59
2023-04-06T05:34:10.594Z,101892.50
2023-04-06T05:36:37.393Z,101900.53
2023-04-06T05:39:04.164Z,101902.78
2023-04-06T05:41:31.365Z,101871.00
2023-04-06T05:43:58.039Z,101901.53
2023-04-06T05:46:24.721Z,101894.22
2023-04-06T05:48:51.477Z,101848.41
2023-04-06T05:51:18.131Z,101901.53
2023-04-06T05:53:44.750Z,101900.84
2023-04-06T05:56:11.415Z,101880.59
2023-04-06T05:58:38.036Z,101902.91
2023-04-06T06:01:05.950Z,101899.16
2023-04-06T06:03:32.747Z,101858.56
2023-04-06T06:06:05.768Z,101902.88
2023-04-06T06:08:32.669Z,101885.03
2023-04-06T06:11:00.046Z,101899.41
2023-04-06T06:13:26.868Z,101851.22
2023-04-06T06:15:53.590Z,101865.44
2023-04-06T06:18:20.704Z,101880.47
2023-04-06T06:20:47.287Z,101867.78
2023-04-06T06:23:13.991Z,101902.06
2023-04-06T06:25:40.756Z,101897.25
2023-04-06T06:28:07.648Z,101868.59
2023-04-06T06:30:34.381Z,101893.59
2023-04-06T06:33:01.360Z,101842.47
2023-04-06T06:35:28.295Z,101892.56
2023-04-06T06:37:54.968Z,101899.69
2023-04-06T06:40:25.191Z,101900.66
2023-04-06T06:42:52.612Z,101898.56
2023-04-06T06:45:19.762Z,101751.09
2023-04-06T06:47:46.711Z,101893.28
2023-04-06T06:50:13.758Z,101901.81
2023-04-06T06:52:40.936Z,101874.00
2023-04-06T06:55:08.123Z,101886.41
2023-04-06T06:57:34.753Z,101836.53
2023-04-06T07:00:01.443Z,101896.16
2023-04-06T07:02:28.269Z,101877.41
2023-04-06T07:04:54.966Z,101883.06
2023-04-06T07:07:21.860Z,101846.34
2023-04-06T07:09:48.686Z,101891.16
2023-04-06T07:12:15.621Z,101840.13
2023-04-06T07:14:42.423Z,101864.84
2023-04-06T07:17:09.769Z,101891.91
2023-04-06T07:19:36.714Z,101858.44
2023-04-06T07:22:04.481Z,101883.16
2023-04-06T07:24:31.284Z,101890.31
2023-04-06T07:27:00.149Z,101878.41
2023-04-06T07:29:26.747Z,101889.44
2023-04-06T07:31:53.379Z,101885.13
2023-04-06T07:34:20.239Z,101881.47
2023-04-06T07:36:46.906Z,101832.78
2023-04-06T07:39:13.509Z,101813.75
2023-04-06T07:41:40.137Z,101878.78
2023-04-06T07:44:07.160Z,101857.75
2023-04-06T07:46:34.330Z,101831.84
2023-04-06T07:49:02.260Z,101873.22
2023-04-06T07:51:29.059Z,101811.84
2023-04-06T07:53:55.778Z,101865.84
2023-04-06T07:56:22.601Z,101863.25
2023-04-06T07:58:49.524Z,101852.69
2023-04-06T08:01:16.552Z,101811.56
2023-04-06T08:03:43.335Z,101800.78
2023-04-06T08:06:10.248Z,101819.91
2023-04-06T08:08:36.903Z,101813.75
2023-04-06T08:11:03.845Z,101819.97
2023-04-06T08:13:30.589Z,101815.97
2023-04-06T08:15:58.254Z,101863.06
2023-04-06T08:18:24.901Z,101860.72
2023-04-06T08:20:51.573Z,101833.47
2023-04-06T08:23:18.421Z,101865.59
2023-04-06T08:25:45.169Z,101852.41
2023-04-06T08:28:12.344Z,101849.19
2023-04-06T08:30:41.793Z,101826.25
2023-04-06T08:33:08.451Z,101849.19
2023-04-06T08:35:35.169Z,101842.59
2023-04-06T08:38:01.961Z,101839.88
2023-04-06T08:40:28.775Z,101796.25
2023-04-06T08:42:57.215Z,101830.19
2023-04-06T08:45:24.246Z,101845.16
2023-04-06T08:47:55.653Z,101796.59
2023-04-06T08:50:22.780Z,101815.16
2023-04-06T08:52:49.935Z,101846.75
2023-04-06T08:55:17.099Z,101846.22
2023-04-06T08:57:44.540Z,101799.97
2023-04-06T09:00:12.212Z,101829.69
2023-04-06T09:02:42.164Z,101817.44
2023-04-06T09:05:11.012Z,101826.03
2023-04-06T09:07:38.359Z,101837.84
2023-04-06T09:10:09.977Z,101811.22
2023-04-06T09:12:37.145Z,101842.06
2023-04-06T09:15:04.730Z,101806.41
2023-04-06T09:17:34.709Z,101804.09
2023-04-06T09:20:04.049Z,101829.59
2023-04-06T09:22:40.353Z,101829.69
2023-04-06T09:25:07.944Z,101829.19
2023-04-06T09:27:39.268Z,101825.63
2023-04-06T09:30:17.094Z,101811.41
2023-04-06T09:32:52.195Z,101815.56
2023-04-06T09:35:21.291Z,101753.53
2023-04-06T09:37:53.022Z,101808.00
2023-04-06T09:40:20.405Z,101808.59
2023-04-06T09:42:48.605Z,101802.81
2023-04-06T09:45:15.634Z,101799.69
2023-04-06T09:47:47.198Z,101799.00
2023-04-06T09:50:15.944Z,101806.94
2023-04-06T09:52:51.495Z,101720.66
2023-04-06T09:55:31.693Z,101805.63
2023-04-06T09:58:04.204Z,101792.50
2023-04-06T10:00:35.759Z,101760.16
2023-04-06T10:03:11.340Z,101796.19
2023-04-06T10:05:53.471Z,101777.91
2023-04-06T10:08:20.697Z,101770.88
2023-04-06T10:10:48.327Z,101792.25
2023-04-06T10:13:16.440Z,101782.00
2023-04-06T10:15:43.811Z,101784.63
2023-04-06T10:18:10.756Z,101788.13
2023-04-06T10:20:44.284Z,101775.22
2023-04-06T10:23:21.843Z,101780.44
2023-04-06T10:25:56.213Z,101786.25
2023-04-06T10:28:23.496Z,101795.97
2023-04-06T10:30:50.715Z,101796.94
2023-04-06T10:33:20.041Z,101789.28
2023-04-06T10:35:47.301Z,101749.88
2023-04-06T10:38:21.161Z,101760.31
2023-04-06T10:40:50.994Z,101780.13
2023-04-06T10:43:23.193Z,101722.81
2023-04-06T10:46:01.714Z,101780.75
2023-04-06T10:48:57.920Z,101771.16
2023-04-06T10:51:29.902Z,101775.06
2023-04-06T10:53:57.886Z,101758.56
2023-04-06T10:56:28.120Z,101756.16
2023-04-06T10:58:59.123Z,101760.66
2023-04-06T11:01:29.031Z,101750.44
2023-04-06T11:04:00.202Z,101745.84
2023-04-06T11:06:32.272Z,101744.34
2023-04-06T11:08:59.354Z,101739.38
2023-04-06T11:11:28.151Z,101706.03
2023-04-06T11:14:00.378Z,101723.16
2023-04-06T11:16:29.512Z,101718.34
2023-04-06T11:19:02.673Z,101731.91
2023-04-06T11:21:48.387Z,101727.28
2023-04-06T11:24:20.462Z,101723.84
2023-04-06T11:26:52.253Z,101732.16
2023-04-06T11:29:27.532Z,101696.41
2023-04-06T11:31:59.257Z,101678.91
2023-04-06T11:34:29.123Z,101729.81
2023-04-06T11:37:00.740Z,101679.38
2023-04-06T11:39:29.210Z,101639.81
2023-04-06T11:42:08.519Z,101597.28
2023-04-06T11:44:36.960Z,101716.38
2023-04-06T11:47:05.573Z,101705.66
2023-04-06T11:49:33.957Z,101709.69
2023-04-06T11:52:04.780Z,101639.97
2023-04-06T11:54:35.968Z,101698.97
2023-04-06T11:57:06.883Z,101683.44
2023-04-06T11:59:34.217Z,101679.81
2023-04-06T12:02:02.625Z,101710.69
2023-04-06T12:04:29.832Z,101714.63
2023-04-06T12:06:57.312Z,101701.25
2023-04-06T12:09:24.393Z,101684.22
2023-04-06T12:11:51.299Z,101675.56
2023-04-06T12:14:18.092Z,101680.94
2023-04-06T12:16:45.173Z,101656.44
2023-04-06T12:19:11.951Z,101633.59
2023-04-06T12:21:38.613Z,101690.22
2023-04-06T12:24:05.949Z,101661.41
2023-04-06T12:26:32.948Z,101692.91
2023-04-06T12:29:07.639Z,101682.22
2023-04-06T12:31:40.214Z,101675.97
2023-04-06T12:34:07.164Z,101655.41
2023-04-06T12:36:34.373Z,101666.47
2023-04-06T12:39:02.141Z,101677.34
2023-04-06T12:41:29.311Z,101678.66
2023-04-06T12:43:56.079Z,101654.03
2023-04-06T12:46:23.430Z,101659.03
2023-04-06T12:48:50.607Z,101670.31
2023-04-06T12:51:18.454Z,101670.22
2023-04-06T12:53:45.141Z,101652.22
2023-04-06T12:56:14.308Z,101529.69
2023-04-06T12:58:42.994Z,101658.38
2023-04-06T13:01:10.716Z,101653.50
2023-04-06T13:03:37.782Z,101632.84
2023-04-06T13:06:04.979Z,101657.53
2023-04-06T13:08:31.790Z,101612.06
2023-04-06T13:10:58.526Z,101601.00
2023-04-06T13:13:27.626Z,101646.25
2023-04-06T13:15:56.708Z,101656.66
2023-04-06T13:18:24.081Z,101651.28
2023-04-06T13:20:51.189Z,101642.16
2023-04-06T13:23:17.914Z,101595.84
2023-04-06T13:25:44.562Z,101618.44
2023-04-06T13:28:11.652Z,101595.50
2023-04-06T13:30:38.598Z,101596.56
2023-04-06T13:33:06.119Z,101597.81
2023-04-06T13:35:33.410Z,101578.81
2023-04-06T13:38:00.022Z,101602.78
2023-04-06T13:40:26.670Z,101608.81
2023-04-06T13:42:53.312Z,101622.50
2023-04-06T13:45:19.986Z,101592.22
2023-04-06T13:47:46.745Z,101619.44
2023-04-06T13:50:13.355Z,101601.56
2023-04-06T13:52:40.004Z,101599.09
2023-04-06T13:55:08.898Z,101599.50
2023-04-06T13:57:37.215Z,101547.84
2023-04-06T14:00:06.348Z,101591.19
2023-04-06T14:02:34.839Z,101589.28
2023-04-06T14:05:01.557Z,101592.84
2023-04-06T14:07:28.082Z,101594.47
2023-04-06T14:09:54.685Z,101586.44
2023-04-06T14:12:21.704Z,101558.31
2023-04-06T14:14:48.306Z,101579.50
2023-04-06T14:17:15.167Z,101597.53
2023-04-06T14:19:41.848Z,101598.00
2023-04-06T14:22:09.696Z,101589.63
2023-04-06T14:24:37.026Z,101593.97
2023-04-06T14:27:03.939Z,101585.94
2023-04-06T14:29:30.690Z,101588.09
2023-04-06T14:32:00.950Z,101526.75
2023-04-06T14:34:28.369Z,101564.19
2023-04-06T14:36:55.007Z,101567.84
2023-04-06T14:39:21.838Z,101486.53
2023-04-06T14:41:49.870Z,101573.47
2023-04-06T14:44:17.780Z,101562.72
2023-04-06T14:46:44.637Z,101569.22
2023-04-06T14:49:11.635Z,101572.94
2023-04-06T14:51:40.224Z,101541.06
2023-04-06T14:54:06.856Z,101580.56
2023-04-06T14:56:33.515Z,101574.38
2023-04-06T14:59:00.675Z,101559.41
2023-04-06T15:01:27.733Z,101569.91
2023-04-06T15:03:54.657Z,101568.78
2023-04-06T15:06:21.988Z,101568.78
2023-04-06T15:08:51.397Z,101499.97
2023-04-06T15:11:18.291Z,101573.47
2023-04-06T15:13:46.560Z,101560.19
2023-04-06T15:16:15.675Z,101540.09
2023-04-06T15:18:42.449Z,101564.75
2023-04-06T15:21:09.043Z,101560.81
2023-04-06T15:23:35.727Z,101555.50
2023-04-06T15:26:02.518Z,101566.25
2023-04-06T15:28:29.852Z,101561.78
2023-04-06T15:30:56.957Z,101554.66
2023-04-06T15:33:23.769Z,101514.34
2023-04-06T15:35:50.652Z,101559.22
2023-04-06T15:38:17.381Z,101557.44
2023-04-06T15:40:49.852Z,101542.72
2023-04-06T15:43:16.914Z,101523.22
2023-04-06T15:45:43.742Z,101558.00
2023-04-06T15:48:10.431Z,101549.53
2023-04-06T15:50:38.226Z,101535.56
2023-04-06T15:53:04.830Z,101551.56
2023-04-06T15:55:31.466Z,101537.91
2023-04-06T15:57:58.033Z,101545.09
2023-04-06T16:00:25.552Z,101546.59
2023-04-06T16:02:52.311Z,101539.63
2023-04-06T16:05:18.971Z,101563.13
2023-04-06T16:07:45.499Z,101562.16
2023-04-06T16:10:12.295Z,101552.47
2023-04-06T16:12:42.484Z,101566.97
2023-04-06T16:15:09.907Z,101560.84
2023-04-06T16:17:36.602Z,101570.38
2023-04-06T16:20:03.886Z,101561.22
2023-04-06T16:22:30.539Z,101565.16
2023-04-06T16:24:57.245Z,101569.66
2023-04-06T16:27:24.063Z,101568.97
2023-04-06T16:29:50.954Z,101556.75
2023-04-06T16:32:17.588Z,101560.41
2023-04-06T16:34:44.194Z,101515.72
2023-04-06T16:37:10.817Z,101581.59
2023-04-06T16:39:37.897Z,101572.44
2023-04-06T16:42:04.708Z,101579.00
2023-04-06T16:44:31.312Z,101557.06
2023-04-06T16:46:58.862Z,101559.50
2023-04-06T16:49:25.413Z,101575.78
2023-04-06T16:51:52.206Z,101536.38
2023-04-06T16:54:18.867Z,101579.53
2023-04-06T16:56:45.465Z,101565.38
2023-04-06T16:59:12.362Z,101529.16
2023-04-06T17:01:39.171Z,101537.59
2023-04-06T17:04:06.158Z,101554.53
2023-04-06T17:06:32.810Z,101580.66
2023-04-06T17:09:00.070Z,101585.91
2023-04-06T17:11:32.843Z,101580.63
2023-04-06T17:14:08.328Z,101578.88
2023-04-06T17:16:35.450Z,101579.97
2023-04-06T17:19:02.245Z,101567.13
2023-04-06T17:21:28.856Z,101590.19
2023-04-06T17:23:55.592Z,101541.41
2023-04-06T17:26:22.409Z,101533.06
2023-04-06T17:28:49.090Z,101567.16
2023-04-06T17:31:16.003Z,101586.91
2023-04-06T17:33:42.640Z,101591.88
2023-04-06T17:36:11.130Z,101591.44
2023-04-06T17:38:43.327Z,101544.56
2023-04-06T17:41:11.930Z,101588.16
2023-04-06T17:43:38.579Z,101595.94
2023-04-06T17:46:06.901Z,101613.16
2023-04-06T17:48:33.578Z,101586.38
2023-04-06T17:51:00.170Z,101612.28
2023-04-06T17:53:30.625Z,101587.59
2023-04-06T17:55:57.229Z,101585.97
2023-04-06T17:58:23.904Z,101619.44
2023-04-06T18:00:50.432Z,101634.69
2023-04-06T18:03:17.187Z,101551.94
2023-04-06T18:05:43.873Z,101636.34
2023-04-06T18:08:10.809Z,101543.81
2023-04-06T18:10:39.183Z,101644.75
2023-04-06T18:13:05.948Z,101649.91
2023-04-06T18:15:35.160Z,101632.06
2023-04-06T18:18:01.733Z,101535.34
2023-04-06T18:20:28.351Z,101645.94
2023-04-06T18:22:55.854Z,101644.69
2023-04-06T18:25:23.505Z,101607.13
2023-04-06T18:27:50.843Z,101593.34
2023-04-06T18:30:18.237Z,101655.69
2023-04-06T18:32:44.883Z,101650.66
2023-04-06T18:35:11.764Z,101659.53
2023-04-06T18:37:38.447Z,101642.97
2023-04-06T18:40:05.821Z,101663.44
2023-04-06T18:42:32.437Z,101615.41
2023-04-06T18:44:59.063Z,101608.50
2023-04-06T18:47:25.959Z,101644.72
2023-04-06T18:49:52.767Z,101660.88
2023-04-06T18:52:19.495Z,101659.06
2023-04-06T18:54:46.123Z,101663.44
2023-04-06T18:57:13.590Z,101665.19
2023-04-06T18:59:40.167Z,101658.59
2023-04-06T19:02:06.970Z,101617.81
2023-04-06T19:04:33.861Z,101664.72
2023-04-06T19:07:01.120Z,101651.03
2023-04-06T19:09:28.524Z,101578.88
2023-04-06T19:11:55.585Z,101653.25
2023-04-06T19:14:22.189Z,101619.56
2023-04-06T19:16:52.707Z,101627.22
2023-04-06T19:19:19.915Z,101626.63
2023-04-06T19:21:46.859Z,101683.63
2023-04-06T19:24:13.544Z,101569.38
2023-04-06T19:26:40.199Z,101678.75
2023-04-06T19:29:06.793Z,101679.47
2023-04-06T19:31:33.498Z,101658.03
2023-04-06T19:34:00.115Z,101669.75
2023-04-06T19:36:26.786Z,101685.88
2023-04-06T19:38:53.364Z,101683.63
2023-04-06T19:41:21.633Z,101685.31
2023-04-06T19:43:48.249Z,101687.06
2023-04-06T19:46:15.610Z,101691.16
2023-04-06T19:48:42.486Z,101686.19
2023-04-06T19:51:09.170Z,101642.47
2023-04-06T19:53:36.754Z,101534.69
2023-04-06T19:56:03.419Z,101697.63
2023-04-06T19:58:29.995Z,101695.84
2023-04-06T20:00:56.706Z,101691.31
2023-04-06T20:03:23.579Z,101666.00
2023-04-06T20:05:50.281Z,101650.72
2023-04-06T20:08:17.011Z,101622.06
2023-04-06T20:10:43.600Z,101694.47
2023-04-06T20:13:10.268Z,101623.00
2023-04-06T20:15:36.861Z,101697.66
2023-04-06T20:18:03.614Z,101690.06
2023-04-06T20:20:30.937Z,101629.59
2023-04-06T20:22:57.603Z,101695.81
2023-04-06T20:25:24.269Z,101691.97
2023-04-06T20:27:53.149Z,101697.81
2023-04-06T20:30:19.866Z,101704.66
2023-04-06T20:32:46.571Z,101697.16
2023-04-06T20:35:13.263Z,101700.69
2023-04-06T20:37:39.856Z,101681.78
2023-04-06T20:40:07.196Z,101696.50
2023-04-06T20:42:34.596Z,101698.47
2023-04-06T20:45:02.777Z,101678.88
2023-04-06T20:47:29.527Z,101698.03
2023-04-06T20:49:56.109Z,101699.13
2023-04-06T20:52:22.954Z,101699.41
2023-04-06T20:54:50.839Z,101629.50
2023-04-06T20:57:17.659Z,101686.72
2023-04-06T20:59:45.377Z,101691.19
2023-04-06T21:02:12.845Z,101698.78
2023-04-06T21:04:39.650Z,101696.84
2023-04-06T21:07:07.120Z,101688.78
2023-04-06T21:09:38.491Z,101690.94
2023-04-06T21:12:06.273Z,101698.03
2023-04-06T21:14:33.267Z,101649.75
2023-04-06T21:17:00.120Z,101693.50
2023-04-06T21:19:29.571Z,101697.69
2023-04-06T21:21:56.368Z,101605.03
2023-04-06T21:24:23.052Z,101699.47
2023-04-06T21:26:49.773Z,101703.22
2023-04-06T21:29:16.379Z,101692.16
2023-04-06T21:31:43.312Z,101695.19
2023-04-06T21:34:14.429Z,101697.78
2023-04-06T21:36:41.997Z,101687.06
2023-04-06T21:39:09.023Z,101673.41
2023-04-06T21:41:35.737Z,101696.59
2023-04-06T21:44:02.303Z,101678.16
2023-04-06T21:46:29.064Z,101692.34
2023-04-06T21:48:55.970Z,101680.69
2023-04-06T21:51:23.232Z,101670.13
2023-04-06T21:53:50.181Z,101701.06
2023-04-06T21:56:23.802Z,101695.31
2023-04-06T21:58:51.885Z,101697.19
2023-04-06T22:01:19.380Z,101692.78
2023-04-06T22:03:46.837Z,101694.75
2023-04-06T22:06:13.850Z,101677.22
2023-04-06T22:08:40.561Z,101689.84
2023-04-06T22:11:09.509Z,101688.03
2023-04-06T22:13:36.490Z,101637.69
2023-04-06T22:16:03.554Z,101679.72
2023-04-06T22:18:30.779Z,101690.69
2023-04-06T22:20:57.537Z,101686.34
2023-04-06T22:23:24.178Z,101681.44
2023-04-06T22:25:50.874Z,101658.25
2023-04-06T22:28:17.408Z,101695.31
2023-04-06T22:30:44.003Z,101633.31
2023-04-06T22:33:10.754Z,101649.97
2023-04-06T22:35:37.656Z,101690.59
2023-04-06T22:38:04.279Z,101694.25
2023-04-06T22:40:31.016Z,101646.88
2023-04-06T22:42:57.637Z,101688.47
2023-04-06T22:45:27.285Z,101697.59
2023-04-06T22:47:53.920Z,101693.91
2023-04-06T22:50:20.544Z,101696.13
2023-04-06T22:52:47.197Z,101690.53
2023-04-06T22:55:13.828Z,101701.78
2023-04-06T22:57:40.483Z,101701.09
2023-04-06T23:00:08.443Z,101710.53
2023-04-06T23:02:35.749Z,101697.25
2023-04-06T23:05:02.382Z,101689.78
2023-04-06T23:07:29.483Z,101708.09
2023-04-06T23:09:56.206Z,101716.47
2023-04-06T23:12:23.689Z,101714.25
2023-04-06T23:14:50.383Z,101665.69
2023-04-06T23:17:17.134Z,101704.00
2023-04-06T23:19:43.789Z,101692.63
2023-04-06T23:22:10.600Z,101697.56
2023-04-06T23:24:37.194Z,101715.81
2023-04-06T23:27:03.821Z,101715.38
2023-04-06T23:29:30.607Z,101721.34
2023-04-06T23:31:57.198Z,101702.31
2023-04-06T23:34:23.761Z,101712.84
2023-04-06T23:36:50.536Z,101714.50
2023-04-06T23:39:17.179Z,101719.63
2023-04-06T23:41:44.029Z,101717.44
2023-04-06T23:44:10.657Z,101715.91
2023-04-06T23:46:37.280Z,101718.75
2023-04-06T23:49:03.928Z,101715.91
2023-04-06T23:51:30.465Z,101689.94
2023-04-06T23:53:58.063Z,101708.75
2023-04-06T23:56:24.916Z,101713.47
2023-04-06T23:58:51.553Z,101667.75
